createdAt,value
2018-04-16T00:00:18.889Z,12.74
2018-04-16T00:01:06.083Z,12.7
2018-04-16T00:02:05.760Z,12.78
2018-04-16T00:03:05.882Z,12.69
2018-04-16T00:04:06.008Z,12.76
2018-04-16T00:05:06.755Z,12.83
2018-04-16T00:06:07.171Z,12.78
2018-04-16T00:07:06.963Z,12.73
2018-04-16T00:08:07.172Z,12.77
2018-04-16T00:09:07.579Z,12.69
2018-04-16T00:10:07.121Z,12.71
2018-04-16T00:11:07.345Z,12.66
2018-04-16T00:12:07.512Z,12.65
2018-04-16T00:13:07.956Z,12.69
2018-04-16T00:14:07.970Z,12.65
2018-04-16T00:15:07.746Z,12.61
2018-04-16T00:16:08.176Z,12.66
2018-04-16T00:17:08.358Z,12.62
2018-04-16T00:18:08.449Z,12.59
2018-04-16T00:19:08.230Z,12.61
2018-04-16T00:20:08.173Z,12.63
2018-04-16T00:21:08.835Z,12.61
2018-04-16T00:22:08.948Z,12.69
2018-04-16T00:23:09.088Z,12.65
2018-04-16T00:24:09.249Z,12.77
2018-04-16T00:25:09.742Z,12.73
2018-04-16T00:26:10.410Z,12.69
2018-04-16T00:27:10.806Z,12.66
2018-04-16T00:28:10.965Z,12.71
2018-04-16T00:29:11.399Z,12.73
2018-04-16T00:30:11.798Z,12.66
2018-04-16T00:31:11.838Z,12.74
2018-04-16T00:32:11.822Z,12.66
2018-04-16T00:33:12.394Z,12.73
2018-04-16T00:34:12.457Z,12.73
2018-04-16T00:35:12.670Z,12.62
2018-04-16T00:36:12.854Z,12.63
2018-04-16T00:37:13.086Z,12.66
2018-04-16T00:38:13.234Z,12.62
2018-04-16T00:39:13.901Z,12.7
2018-04-16T00:40:13.682Z,12.7
2018-04-16T00:41:13.693Z,12.66
2018-04-16T00:42:13.036Z,12.7
2018-04-16T00:43:13.475Z,12.62
2018-04-16T00:44:13.632Z,12.73
2018-04-16T00:45:13.642Z,12.73
2018-04-16T00:46:13.830Z,12.71
2018-04-16T00:47:14.250Z,12.63
2018-04-16T00:48:15.060Z,12.63
2018-04-16T00:49:15.500Z,12.63
2018-04-16T00:50:15.425Z,12.59
2018-04-16T00:51:15.448Z,12.52
2018-04-16T00:52:15.251Z,12.55
2018-04-16T00:53:15.644Z,12.53
2018-04-16T00:54:15.810Z,12.55
2018-04-16T00:55:15.581Z,12.53
2018-04-16T00:56:15.876Z,12.59
2018-04-16T00:57:16.042Z,12.52
2018-04-16T00:58:16.409Z,12.52
2018-04-16T00:59:16.460Z,12.33
2018-04-16T01:00:17.206Z,12.34
2018-04-16T01:01:17.861Z,12.45
2018-04-16T01:02:17.987Z,12.47
2018-04-16T01:03:18.014Z,12.41
2018-04-16T01:04:18.046Z,12.43
2018-04-16T01:05:18.422Z,12.4
2018-04-16T01:06:18.217Z,12.47
2018-04-16T01:07:18.662Z,12.44
2018-04-16T01:08:18.439Z,12.4
2018-04-16T01:09:18.593Z,12.41
2018-04-16T01:10:19.436Z,12.43
2018-04-16T01:11:19.187Z,12.4
2018-04-16T01:12:19.206Z,12.43
2018-04-16T01:13:19.033Z,12.41
2018-04-16T01:14:19.518Z,12.43
2018-04-16T01:15:19.282Z,12.41
2018-04-16T01:16:19.645Z,12.45
2018-04-16T01:17:19.572Z,12.48
2018-04-16T01:18:19.382Z,12.48
2018-04-16T01:19:19.637Z,12.53
2018-04-16T01:20:20.367Z,12.59
2018-04-16T01:21:20.202Z,12.56
2018-04-16T01:22:20.669Z,12.55
2018-04-16T01:23:20.821Z,12.53
2018-04-16T01:24:21.495Z,12.44
2018-04-16T01:25:21.608Z,12.48
2018-04-16T01:26:21.283Z,12.53
2018-04-16T01:27:21.487Z,12.59
2018-04-16T01:28:22.108Z,12.59
2018-04-16T01:29:22.505Z,12.53
2018-04-16T01:30:22.643Z,12.48
2018-04-16T01:31:22.674Z,12.47
2018-04-16T01:32:23.048Z,12.4
2018-04-16T01:33:23.456Z,12.44
2018-04-16T01:34:23.478Z,12.41
2018-04-16T01:35:23.439Z,12.48
2018-04-16T01:36:23.657Z,12.47
2018-04-16T01:37:23.684Z,12.43
2018-04-16T01:38:23.729Z,12.47
2018-04-16T01:39:23.843Z,12.44
2018-04-16T01:40:24.201Z,12.43
2018-04-16T01:41:24.063Z,12.41
2018-04-16T01:42:24.660Z,12.29
2018-04-16T01:43:24.901Z,12.29
2018-04-16T01:44:25.342Z,12.31
2018-04-16T01:45:25.779Z,12.37
2018-04-16T01:46:25.909Z,12.37
2018-04-16T01:47:26.233Z,12.37
2018-04-16T01:48:26.665Z,12.33
2018-04-16T01:49:26.750Z,12.36
2018-04-16T01:50:26.556Z,12.36
2018-04-16T01:51:26.991Z,12.25
2018-04-16T01:52:27.097Z,12.33
2018-04-16T01:53:27.223Z,12.36
2018-04-16T01:54:27.615Z,12.37
2018-04-16T01:55:28.073Z,12.28
2018-04-16T01:56:27.526Z,12.34
2018-04-16T01:57:28.090Z,12.29
2018-04-16T01:58:28.131Z,12.37
2018-04-16T01:59:27.887Z,12.37
2018-04-16T02:00:37.696Z,12.33
2018-04-16T02:01:37.719Z,12.36
2018-04-16T02:02:37.742Z,12.47
2018-04-16T02:03:37.988Z,12.45
2018-04-16T02:04:38.579Z,12.4
2018-04-16T02:05:38.317Z,12.4
2018-04-16T02:06:38.597Z,12.44
2018-04-16T02:07:38.790Z,12.43
2018-04-16T02:08:38.987Z,12.34
2018-04-16T02:09:39.399Z,12.36
2018-04-16T02:10:39.541Z,12.38
2018-04-16T02:11:39.846Z,12.33
2018-04-16T02:12:40.081Z,12.37
2018-04-16T02:13:40.189Z,12.51
2018-04-16T02:14:40.483Z,12.45
2018-04-16T02:15:40.459Z,12.47
2018-04-16T02:16:40.526Z,12.45
2018-04-16T02:17:40.701Z,12.33
2018-04-16T02:18:41.077Z,12.38
2018-04-16T02:19:41.103Z,12.33
2018-04-16T02:20:40.853Z,12.36
2018-04-16T02:21:41.395Z,12.34
2018-04-16T02:22:41.281Z,12.34
2018-04-16T02:23:41.058Z,12.31
2018-04-16T02:24:41.107Z,12.31
2018-04-16T02:25:41.108Z,12.38
2018-04-16T02:26:41.415Z,12.36
2018-04-16T02:27:41.610Z,12.23
2018-04-16T02:28:41.648Z,12.33
2018-04-16T02:29:41.406Z,12.31
2018-04-16T02:30:42.230Z,12.26
2018-04-16T02:31:41.901Z,12.28
2018-04-16T02:32:42.024Z,12.22
2018-04-16T02:33:42.092Z,12.23
2018-04-16T02:34:42.106Z,12.28
2018-04-16T02:35:42.705Z,12.28
2018-04-16T02:36:42.953Z,12.34
2018-04-16T02:37:43.380Z,12.36
2018-04-16T02:38:43.238Z,12.38
2018-04-16T02:39:44.046Z,12.44
2018-04-16T02:40:43.870Z,12.41
2018-04-16T02:41:43.393Z,12.47
2018-04-16T02:42:44.451Z,12.34
2018-04-16T02:43:44.310Z,12.31
2018-04-16T02:44:43.756Z,12.23
2018-04-16T02:45:44.013Z,12.36
2018-04-16T02:46:44.152Z,12.31
2018-04-16T02:47:44.531Z,12.23
2018-04-16T02:48:44.996Z,12.23
2018-04-16T02:49:44.608Z,12.2
2018-04-16T02:50:44.434Z,12.2
2018-04-16T02:51:44.584Z,12.18
2018-04-16T02:52:44.186Z,12.19
2018-04-16T02:53:44.651Z,12.07
2018-04-16T02:54:44.689Z,12.13
2018-04-16T02:55:45.056Z,12.04
2018-04-16T02:56:44.938Z,12.19
2018-04-16T02:57:45.115Z,12.2
2018-04-16T02:58:44.863Z,12.25
2018-04-16T02:59:45.314Z,12.29
2018-04-16T03:00:45.563Z,12.2
2018-04-16T03:01:45.613Z,12.23
2018-04-16T03:02:45.816Z,12.2
2018-04-16T03:03:45.830Z,12.25
2018-04-16T03:04:45.901Z,12.23
2018-04-16T03:05:45.966Z,12.2
2018-04-16T03:06:45.947Z,12.29
2018-04-16T03:07:46.346Z,12.19
2018-04-16T03:08:46.612Z,12.29
2018-04-16T03:09:46.302Z,12.28
2018-04-16T03:10:46.309Z,12.28
2018-04-16T03:11:46.728Z,12.34
2018-04-16T03:12:46.588Z,12.31
2018-04-16T03:13:47.291Z,12.36
2018-04-16T03:14:47.373Z,12.33
2018-04-16T03:15:47.307Z,12.26
2018-04-16T03:16:47.561Z,12.34
2018-04-16T03:17:47.693Z,12.26
2018-04-16T03:18:48.084Z,12.33
2018-04-16T03:19:48.263Z,12.25
2018-04-16T03:20:47.772Z,12.23
2018-04-16T03:21:48.049Z,12.31
2018-04-16T03:22:48.501Z,12.25
2018-04-16T03:23:48.525Z,12.19
2018-04-16T03:24:48.624Z,12.28
2018-04-16T03:25:48.564Z,12.28
2018-04-16T03:26:48.815Z,12.25
2018-04-16T03:27:49.246Z,12.25
2018-04-16T03:28:49.224Z,12.22
2018-04-16T03:29:49.682Z,12.2
2018-04-16T03:30:49.880Z,12.16
2018-04-16T03:31:49.953Z,12.2
2018-04-16T03:32:50.182Z,12.15
2018-04-16T03:33:50.634Z,12.23
2018-04-16T03:34:50.699Z,12.22
2018-04-16T03:35:50.706Z,12.26
2018-04-16T03:36:50.726Z,12.25
2018-04-16T03:37:50.606Z,12.16
2018-04-16T03:38:51.164Z,12.04
2018-04-16T03:39:50.942Z,12.05
2018-04-16T03:40:51.367Z,12.07
2018-04-16T03:41:51.801Z,12.1
2018-04-16T03:42:51.399Z,12.1
2018-04-16T03:43:51.614Z,12.13
2018-04-16T03:44:51.805Z,12.07
2018-04-16T03:45:52.082Z,12
2018-04-16T03:46:52.784Z,12.05
2018-04-16T03:47:52.459Z,12
2018-04-16T03:48:52.760Z,11.94
2018-04-16T03:49:52.507Z,12.08
2018-04-16T03:50:52.671Z,12.04
2018-04-16T03:51:53.321Z,11.95
2018-04-16T03:52:53.077Z,11.89
2018-04-16T03:53:53.194Z,11.97
2018-04-16T03:54:53.602Z,11.88
2018-04-16T03:55:53.644Z,11.86
2018-04-16T03:56:54.335Z,11.97
2018-04-16T03:57:54.468Z,11.98
2018-04-16T03:58:54.492Z,12
2018-04-16T03:59:54.503Z,11.89
2018-04-16T04:00:54.532Z,11.81
2018-04-16T04:01:54.282Z,11.85
2018-04-16T04:02:54.397Z,11.84
2018-04-16T04:03:54.542Z,11.84
2018-04-16T04:04:54.786Z,11.85
2018-04-16T04:05:54.807Z,11.89
2018-04-16T04:06:54.305Z,11.94
2018-04-16T04:07:54.708Z,11.97
2018-04-16T04:08:55.350Z,11.94
2018-04-16T04:09:55.311Z,11.98
2018-04-16T04:10:55.601Z,11.94
2018-04-16T04:11:56.000Z,11.95
2018-04-16T04:12:56.434Z,11.97
2018-04-16T04:13:56.072Z,11.97
2018-04-16T04:14:56.484Z,11.97
2018-04-16T04:15:56.598Z,11.98
2018-04-16T04:16:56.770Z,11.89
2018-04-16T04:17:57.036Z,11.98
2018-04-16T04:18:56.809Z,11.91
2018-04-16T04:19:56.572Z,11.85
2018-04-16T04:20:57.600Z,11.89
2018-04-16T04:21:57.176Z,11.89
2018-04-16T04:22:58.319Z,11.88
2018-04-16T04:23:57.804Z,11.84
2018-04-16T04:24:58.180Z,11.88
2018-04-16T04:25:58.089Z,11.91
2018-04-16T04:26:57.946Z,12.01
2018-04-16T04:27:58.099Z,11.91
2018-04-16T04:28:58.746Z,11.91
2018-04-16T04:29:59.112Z,11.91
2018-04-16T04:30:59.313Z,11.94
2018-04-16T04:31:59.712Z,11.95
2018-04-16T04:32:59.773Z,11.97
2018-04-16T04:34:00.114Z,12
2018-04-16T04:35:00.162Z,11.97
2018-04-16T04:36:00.358Z,11.94
2018-04-16T04:37:00.035Z,11.94
2018-04-16T04:38:00.214Z,11.98
2018-04-16T04:39:00.644Z,11.94
2018-04-16T04:40:00.236Z,11.97
2018-04-16T04:40:59.999Z,11.89
2018-04-16T04:42:00.286Z,11.94
2018-04-16T04:43:00.577Z,12.01
2018-04-16T04:44:00.982Z,12.05
2018-04-16T04:45:00.895Z,12.13
2018-04-16T04:46:01.186Z,12.13
2018-04-16T04:47:00.963Z,12.08
2018-04-16T04:48:01.358Z,12.04
2018-04-16T04:49:01.592Z,11.98
2018-04-16T04:50:01.588Z,11.91
2018-04-16T04:51:02.185Z,12.01
2018-04-16T04:52:02.123Z,12.03
2018-04-16T04:53:02.462Z,12.13
2018-04-16T04:54:02.189Z,12.08
2018-04-16T04:55:02.150Z,12.13
2018-04-16T04:56:02.483Z,12.04
2018-04-16T04:57:03.070Z,12.05
2018-04-16T04:58:02.907Z,12.04
2018-04-16T04:59:02.961Z,12.08
2018-04-16T05:00:16.103Z,12.05
2018-04-16T05:01:03.526Z,12.08
2018-04-16T05:02:03.534Z,12.13
2018-04-16T05:03:02.994Z,12.18
2018-04-16T05:04:03.623Z,12.13
2018-04-16T05:05:03.383Z,12.1
2018-04-16T05:06:03.635Z,12.07
2018-04-16T05:07:03.771Z,12.08
2018-04-16T05:08:03.701Z,12.08
2018-04-16T05:09:03.802Z,12.01
2018-04-16T05:10:04.039Z,12.01
2018-04-16T05:11:03.581Z,12.03
2018-04-16T05:12:03.902Z,12.03
2018-04-16T05:13:03.923Z,12.07
2018-04-16T05:14:04.144Z,12.04
2018-04-16T05:15:04.495Z,12.04
2018-04-16T05:16:04.464Z,12.04
2018-04-16T05:17:04.776Z,12.03
2018-04-16T05:18:04.596Z,11.91
2018-04-16T05:19:04.925Z,12.01
2018-04-16T05:20:05.189Z,11.95
2018-04-16T05:21:04.929Z,11.89
2018-04-16T05:22:05.228Z,11.95
2018-04-16T05:23:05.761Z,11.85
2018-04-16T05:24:06.036Z,11.89
2018-04-16T05:25:06.110Z,11.91
2018-04-16T05:26:05.789Z,11.97
2018-04-16T05:27:05.818Z,11.89
2018-04-16T05:28:06.417Z,11.94
2018-04-16T05:29:06.464Z,11.98
2018-04-16T05:30:06.447Z,11.95
2018-04-16T05:31:06.588Z,11.94
2018-04-16T05:32:06.592Z,11.95
2018-04-16T05:33:06.668Z,11.88
2018-04-16T05:34:06.674Z,12
2018-04-16T05:35:06.755Z,12.01
2018-04-16T05:36:06.494Z,12.1
2018-04-16T05:37:06.994Z,12.13
2018-04-16T05:38:07.206Z,12.08
2018-04-16T05:39:07.260Z,12.19
2018-04-16T05:40:07.534Z,12.23
2018-04-16T05:41:07.563Z,12.26
2018-04-16T05:42:07.327Z,12.18
2018-04-16T05:43:07.178Z,12.18
2018-04-16T05:44:07.705Z,12.11
2018-04-16T05:45:08.593Z,12.11
2018-04-16T05:46:07.893Z,12.05
2018-04-16T05:47:08.459Z,12.08
2018-04-16T05:48:08.569Z,12.1
2018-04-16T05:49:07.946Z,12.05
2018-04-16T05:50:08.563Z,12.05
2018-04-16T05:51:08.268Z,12.13
2018-04-16T05:52:08.045Z,12.07
2018-04-16T05:53:08.749Z,12.13
2018-04-16T05:54:08.560Z,12.22
2018-04-16T05:55:08.784Z,12.33
2018-04-16T05:56:08.692Z,12.25
2018-04-16T05:57:08.593Z,12.19
2018-04-16T05:58:08.964Z,12.26
2018-04-16T05:59:08.594Z,12.26
2018-04-16T06:00:15.178Z,12.4
2018-04-16T06:01:09.264Z,12.29
2018-04-16T06:02:09.750Z,12.34
2018-04-16T06:03:08.737Z,12.38
2018-04-16T06:04:09.009Z,12.45
2018-04-16T06:05:09.408Z,12.4
2018-04-16T06:06:08.883Z,12.44
2018-04-16T06:07:09.390Z,12.47
2018-04-16T06:08:09.764Z,12.37
2018-04-16T06:09:09.621Z,12.37
2018-04-16T06:10:09.598Z,12.34
2018-04-16T06:11:10.411Z,12.45
2018-04-16T06:12:10.715Z,12.45
2018-04-16T06:13:10.466Z,12.56
2018-04-16T06:14:10.386Z,12.47
2018-04-16T06:15:10.486Z,12.58
2018-04-16T06:16:10.137Z,12.59
2018-04-16T06:17:10.244Z,12.48
2018-04-16T06:18:10.516Z,12.55
2018-04-16T06:19:11.023Z,12.53
2018-04-16T06:20:10.655Z,12.65
2018-04-16T06:21:11.024Z,12.61
2018-04-16T06:22:11.013Z,12.71
2018-04-16T06:23:12.029Z,12.71
2018-04-16T06:24:12.057Z,12.76
2018-04-16T06:25:13.106Z,12.76
2018-04-16T06:26:13.798Z,12.78
2018-04-16T06:27:13.276Z,12.76
2018-04-16T06:28:13.215Z,12.76
2018-04-16T06:29:13.306Z,12.76
2018-04-16T06:30:13.785Z,12.73
2018-04-16T06:31:13.271Z,12.78
2018-04-16T06:32:12.965Z,12.74
2018-04-16T06:33:13.334Z,12.7
2018-04-16T06:34:12.369Z,12.7
2018-04-16T06:35:13.611Z,12.73
2018-04-16T06:36:12.691Z,12.69
2018-04-16T06:37:12.918Z,12.69
2018-04-16T06:38:12.852Z,12.7
2018-04-16T06:39:12.778Z,12.66
2018-04-16T06:40:12.801Z,12.63
2018-04-16T06:41:12.989Z,12.63
2018-04-16T06:42:12.917Z,12.69
2018-04-16T06:43:12.652Z,12.7
2018-04-16T06:44:12.390Z,12.65
2018-04-16T06:45:13.061Z,12.62
2018-04-16T06:46:12.819Z,12.63
2018-04-16T06:47:13.012Z,12.66
2018-04-16T06:48:12.785Z,12.66
2018-04-16T06:49:12.568Z,12.55
2018-04-16T06:50:12.844Z,12.61
2018-04-16T06:51:12.989Z,12.63
2018-04-16T06:52:13.003Z,12.59
2018-04-16T06:53:13.123Z,12.63
2018-04-16T06:54:13.591Z,12.8
2018-04-16T06:55:13.348Z,12.83
2018-04-16T06:56:13.110Z,12.81
2018-04-16T06:57:13.152Z,12.89
2018-04-16T06:58:13.375Z,12.88
2018-04-16T06:59:13.688Z,12.83
2018-04-16T07:00:13.403Z,12.84
2018-04-16T07:01:14.072Z,12.89
2018-04-16T07:02:13.677Z,12.94
2018-04-16T07:03:14.555Z,12.94
2018-04-16T07:04:14.659Z,12.95
2018-04-16T07:05:15.164Z,12.95
2018-04-16T07:06:15.351Z,12.95
2018-04-16T07:07:15.509Z,12.92
2018-04-16T07:08:15.608Z,12.98
2018-04-16T07:09:15.757Z,12.99
2018-04-16T07:10:15.994Z,12.98
2018-04-16T07:11:16.412Z,13.06
2018-04-16T07:12:16.562Z,12.94
2018-04-16T07:13:16.331Z,12.96
2018-04-16T07:14:16.436Z,12.94
2018-04-16T07:15:16.802Z,12.94
2018-04-16T07:16:16.817Z,12.89
2018-04-16T07:17:16.985Z,12.84
2018-04-16T07:18:16.855Z,12.91
2018-04-16T07:19:17.493Z,12.88
2018-04-16T07:20:17.427Z,12.74
2018-04-16T07:21:17.693Z,12.8
2018-04-16T07:22:17.534Z,12.83
2018-04-16T07:23:18.123Z,12.71
2018-04-16T07:24:18.315Z,12.71
2018-04-16T07:25:17.939Z,12.71
2018-04-16T07:26:18.305Z,12.69
2018-04-16T07:27:18.368Z,12.69
2018-04-16T07:28:17.860Z,12.61
2018-04-16T07:29:18.610Z,12.65
2018-04-16T07:30:18.739Z,12.7
2018-04-16T07:31:19.261Z,12.66
2018-04-16T07:32:19.325Z,12.65
2018-04-16T07:33:19.311Z,12.66
2018-04-16T07:34:19.759Z,12.77
2018-04-16T07:35:19.934Z,12.73
2018-04-16T07:36:20.977Z,12.7
2018-04-16T07:37:20.273Z,12.81
2018-04-16T07:38:20.828Z,12.84
2018-04-16T07:39:20.481Z,12.92
2018-04-16T07:40:20.900Z,12.96
2018-04-16T07:41:20.876Z,13.06
2018-04-16T07:42:20.951Z,13.14
2018-04-16T07:43:21.056Z,13.16
2018-04-16T07:44:21.023Z,13.1
2018-04-16T07:45:21.457Z,13.1
2018-04-16T07:46:21.631Z,13.09
2018-04-16T07:47:22.050Z,13.16
2018-04-16T07:48:22.073Z,13.17
2018-04-16T07:49:22.282Z,13.17
2018-04-16T07:50:22.719Z,13.21
2018-04-16T07:51:22.495Z,13.32
2018-04-16T07:52:22.901Z,13.29
2018-04-16T07:53:23.326Z,13.48
2018-04-16T07:54:23.922Z,13.5
2018-04-16T07:55:23.881Z,13.44
2018-04-16T07:56:23.700Z,13.5
2018-04-16T07:57:23.927Z,13.5
2018-04-16T07:58:25.073Z,13.44
2018-04-16T07:59:24.702Z,13.47
2018-04-16T08:00:24.418Z,13.55
2018-04-16T08:01:24.526Z,13.5
2018-04-16T08:02:24.470Z,13.47
2018-04-16T08:03:24.528Z,13.36
2018-04-16T08:04:24.765Z,13.35
2018-04-16T08:05:25.157Z,13.32
2018-04-16T08:06:25.278Z,13.45
2018-04-16T08:07:25.219Z,13.47
2018-04-16T08:08:25.243Z,13.51
2018-04-16T08:09:25.048Z,13.5
2018-04-16T08:10:25.520Z,13.4
2018-04-16T08:11:25.356Z,13.53
2018-04-16T08:12:25.283Z,13.51
2018-04-16T08:13:25.713Z,13.45
2018-04-16T08:14:26.268Z,13.47
2018-04-16T08:15:25.676Z,13.32
2018-04-16T08:16:25.706Z,13.42
2018-04-16T08:17:25.720Z,13.48
2018-04-16T08:18:26.865Z,13.47
2018-04-16T08:19:26.536Z,13.45
2018-04-16T08:20:26.595Z,13.47
2018-04-16T08:21:26.317Z,13.44
2018-04-16T08:22:26.730Z,13.45
2018-04-16T08:23:26.500Z,13.47
2018-04-16T08:24:26.776Z,13.55
2018-04-16T08:25:26.838Z,13.53
2018-04-16T08:26:27.230Z,13.65
2018-04-16T08:27:27.293Z,13.58
2018-04-16T08:28:27.424Z,13.65
2018-04-16T08:29:27.078Z,13.72
2018-04-16T08:30:27.819Z,13.79
2018-04-16T08:31:27.571Z,13.83
2018-04-16T08:32:28.028Z,13.86
2018-04-16T08:33:28.169Z,14.03
2018-04-16T08:34:28.439Z,14.01
2018-04-16T08:35:28.662Z,13.95
2018-04-16T08:36:28.838Z,14.01
2018-04-16T08:37:29.507Z,13.9
2018-04-16T08:38:29.289Z,13.95
2018-04-16T08:39:29.076Z,14.03
2018-04-16T08:40:29.425Z,14.16
2018-04-16T08:41:29.338Z,14.06
2018-04-16T08:42:29.187Z,14.19
2018-04-16T08:43:29.941Z,14.13
2018-04-16T08:44:29.702Z,14.23
2018-04-16T08:45:30.170Z,14.3
2018-04-16T08:46:30.238Z,14.27
2018-04-16T08:47:29.986Z,14.28
2018-04-16T08:48:31.894Z,14.28
2018-04-16T08:49:31.171Z,14.36
2018-04-16T08:50:31.362Z,14.36
2018-04-16T08:51:31.146Z,14.42
2018-04-16T08:52:31.160Z,14.49
2018-04-16T08:53:31.172Z,14.49
2018-04-16T08:54:31.281Z,14.52
2018-04-16T08:55:30.907Z,14.48
2018-04-16T08:56:32.179Z,14.52
2018-04-16T08:57:32.034Z,14.52
2018-04-16T08:58:32.750Z,14.49
2018-04-16T08:59:33.174Z,14.67
2018-04-16T09:00:34.129Z,14.74
2018-04-16T09:01:34.355Z,14.79
2018-04-16T09:02:33.096Z,14.79
2018-04-16T09:03:33.805Z,14.86
2018-04-16T09:04:34.187Z,14.89
2018-04-16T09:05:33.609Z,15.02
2018-04-16T09:06:33.684Z,15.05
2018-04-16T09:07:33.712Z,15.08
2018-04-16T09:08:33.817Z,15.02
2018-04-16T09:09:34.721Z,15
2018-04-16T09:10:34.064Z,14.9
2018-04-16T09:11:33.630Z,14.98
2018-04-16T09:12:34.168Z,15.15
2018-04-16T09:13:34.041Z,15.19
2018-04-16T09:14:34.414Z,15.26
2018-04-16T09:15:33.936Z,15.3
2018-04-16T09:16:34.686Z,15.3
2018-04-16T09:17:33.983Z,15.45
2018-04-16T09:18:34.390Z,15.47
2018-04-16T09:19:34.550Z,15.49
2018-04-16T09:20:34.480Z,15.45
2018-04-16T09:21:34.477Z,15.47
2018-04-16T09:22:34.663Z,15.49
2018-04-16T09:23:35.335Z,15.59
2018-04-16T09:24:35.520Z,15.77
2018-04-16T09:25:35.321Z,15.8
2018-04-16T09:26:35.386Z,15.92
2018-04-16T09:27:35.121Z,15.98
2018-04-16T09:28:35.806Z,16.13
2018-04-16T09:29:35.857Z,16.21
2018-04-16T09:30:36.148Z,16.29
2018-04-16T09:31:35.910Z,16.32
2018-04-16T09:32:36.099Z,16.33
2018-04-16T09:33:36.412Z,16.48
2018-04-16T09:34:36.444Z,16.65
2018-04-16T09:35:36.656Z,16.66
2018-04-16T09:36:36.511Z,16.81
2018-04-16T09:37:36.667Z,16.92
2018-04-16T09:38:36.805Z,16.91
2018-04-16T09:39:36.905Z,17.03
2018-04-16T09:40:36.942Z,17.06
2018-04-16T09:41:36.873Z,17.09
2018-04-16T09:42:37.960Z,17.27
2018-04-16T09:43:37.641Z,17.32
2018-04-16T09:44:37.785Z,17.27
2018-04-16T09:45:38.093Z,17.25
2018-04-16T09:46:38.046Z,17.32
2018-04-16T09:47:38.381Z,17.35
2018-04-16T09:48:38.272Z,17.31
2018-04-16T09:49:38.534Z,17.32
2018-04-16T09:50:38.304Z,17.25
2018-04-16T09:51:37.926Z,17.22
2018-04-16T09:52:38.649Z,17.17
2018-04-16T09:53:39.091Z,17.12
2018-04-16T09:54:38.399Z,16.99
2018-04-16T09:55:38.709Z,16.92
2018-04-16T09:56:38.800Z,16.9
2018-04-16T09:57:38.818Z,16.99
2018-04-16T09:58:38.846Z,17.06
2018-04-16T09:59:39.494Z,17.07
2018-04-16T10:00:39.529Z,16.97
2018-04-16T10:01:39.305Z,16.97
2018-04-16T10:02:39.770Z,16.95
2018-04-16T10:03:39.321Z,16.97
2018-04-16T10:04:40.101Z,16.97
2018-04-16T10:05:40.020Z,17.06
2018-04-16T10:06:39.785Z,17.03
2018-04-16T10:07:40.105Z,17.06
2018-04-16T10:08:39.398Z,17.13
2018-04-16T10:09:39.647Z,16.97
2018-04-16T10:10:39.958Z,17.05
2018-04-16T10:11:40.424Z,17.07
2018-04-16T10:12:40.243Z,16.88
2018-04-16T10:13:40.682Z,16.92
2018-04-16T10:14:40.233Z,16.91
2018-04-16T10:15:41.177Z,16.84
2018-04-16T10:16:40.958Z,16.82
2018-04-16T10:17:40.993Z,16.9
2018-04-16T10:18:40.975Z,16.92
2018-04-16T10:19:41.016Z,16.91
2018-04-16T10:20:41.399Z,16.97
2018-04-16T10:21:41.449Z,17.12
2018-04-16T10:22:41.728Z,17.15
2018-04-16T10:23:41.455Z,17.17
2018-04-16T10:24:41.949Z,17.18
2018-04-16T10:25:42.220Z,17.2
2018-04-16T10:26:42.220Z,17.3
2018-04-16T10:27:42.254Z,17.24
2018-04-16T10:28:42.273Z,17.32
2018-04-16T10:29:42.030Z,17.43
2018-04-16T10:30:42.435Z,17.45
2018-04-16T10:31:43.238Z,17.6
2018-04-16T10:32:42.822Z,17.6
2018-04-16T10:33:43.752Z,17.66
2018-04-16T10:34:43.265Z,17.83
2018-04-16T10:35:43.933Z,18.02
2018-04-16T10:36:43.707Z,18.05
2018-04-16T10:37:43.444Z,18.21
2018-04-16T10:38:43.768Z,18.42
2018-04-16T10:39:43.810Z,18.54
2018-04-16T10:40:43.721Z,18.66
2018-04-16T10:41:44.071Z,18.86
2018-04-16T10:42:44.526Z,19.13
2018-04-16T10:43:45.031Z,19.35
2018-04-16T10:44:44.803Z,19.47
2018-04-16T10:45:44.889Z,19.6
2018-04-16T10:46:45.297Z,19.64
2018-04-16T10:47:45.962Z,19.79
2018-04-16T10:48:45.757Z,20.02
2018-04-16T10:49:46.243Z,20.32
2018-04-16T10:50:46.843Z,20.57
2018-04-16T10:51:46.653Z,20.94
2018-04-16T10:52:46.549Z,20.93
2018-04-16T10:53:47.134Z,21.36
2018-04-16T10:54:46.913Z,21.68
2018-04-16T10:55:46.863Z,21.92
2018-04-16T10:56:46.879Z,22.36
2018-04-16T10:57:46.589Z,22.57
2018-04-16T10:58:46.072Z,22.55
2018-04-16T10:59:46.126Z,22.52
2018-04-16T11:00:46.143Z,22.46
2018-04-16T11:01:46.183Z,22.57
2018-04-16T11:02:46.406Z,22.45
2018-04-16T11:03:46.335Z,22.48
2018-04-16T11:04:46.527Z,22.44
2018-04-16T11:05:46.441Z,22.3
2018-04-16T11:06:46.695Z,22.49
2018-04-16T11:07:46.216Z,22.54
2018-04-16T11:08:46.853Z,22.66
2018-04-16T11:09:46.677Z,22.91
2018-04-16T11:10:46.604Z,23.21
2018-04-16T11:11:46.995Z,23.26
2018-04-16T11:12:47.153Z,23.35
2018-04-16T11:13:47.318Z,23.15
2018-04-16T11:14:47.981Z,23.15
2018-04-16T11:15:48.803Z,23.12
2018-04-16T11:16:47.801Z,23.03
2018-04-16T11:17:48.077Z,23
2018-04-16T11:18:48.768Z,22.66
2018-04-16T11:19:48.341Z,22.66
2018-04-16T11:20:49.401Z,22.42
2018-04-16T11:21:49.312Z,22.23
2018-04-16T11:22:49.297Z,22.18
2018-04-16T11:23:49.410Z,21.94
2018-04-16T11:24:49.457Z,21.76
2018-04-16T11:25:50.073Z,21.64
2018-04-16T11:26:49.658Z,21.55
2018-04-16T11:27:49.364Z,21.41
2018-04-16T11:28:49.974Z,21.41
2018-04-16T11:29:49.765Z,21.33
2018-04-16T11:30:50.294Z,21.22
2018-04-16T11:31:50.293Z,21.15
2018-04-16T11:32:50.942Z,21.23
2018-04-16T11:33:50.753Z,21.06
2018-04-16T11:34:50.223Z,20.83
2018-04-16T11:35:50.857Z,20.56
2018-04-16T11:36:50.816Z,20.35
2018-04-16T11:37:50.946Z,20.08
2018-04-16T11:38:50.619Z,19.83
2018-04-16T11:39:51.269Z,19.67
2018-04-16T11:40:51.061Z,19.63
2018-04-16T11:41:51.215Z,19.47
2018-04-16T11:42:51.375Z,19.32
2018-04-16T11:43:51.425Z,19.16
2018-04-16T11:44:51.913Z,19.15
2018-04-16T11:45:52.209Z,19.05
2018-04-16T11:46:52.255Z,19.02
2018-04-16T11:47:52.649Z,18.99
2018-04-16T11:48:52.763Z,18.96
2018-04-16T11:49:52.859Z,18.86
2018-04-16T11:50:52.536Z,18.81
2018-04-16T11:51:53.237Z,18.71
2018-04-16T11:52:54.215Z,18.68
2018-04-16T11:53:54.452Z,18.68
2018-04-16T11:54:54.720Z,18.71
2018-04-16T11:55:54.066Z,18.76
2018-04-16T11:56:54.360Z,18.69
2018-04-16T11:57:54.024Z,18.66
2018-04-16T11:58:54.003Z,18.74
2018-04-16T11:59:54.759Z,18.72
2018-04-16T12:00:54.148Z,18.71
2018-04-16T12:01:54.027Z,18.68
2018-04-16T12:02:54.061Z,18.68
2018-04-16T12:03:54.488Z,18.65
2018-04-16T12:04:54.273Z,18.59
2018-04-16T12:05:54.470Z,18.39
2018-04-16T12:06:54.296Z,18.44
2018-04-16T12:07:55.370Z,18.44
2018-04-16T12:08:55.406Z,18.42
2018-04-16T12:09:55.106Z,18.63
2018-04-16T12:10:55.602Z,18.79
2018-04-16T12:11:55.092Z,18.81
2018-04-16T12:12:55.112Z,18.82
2018-04-16T12:13:55.374Z,18.84
2018-04-16T12:14:55.761Z,18.84
2018-04-16T12:15:55.931Z,18.93
2018-04-16T12:16:55.715Z,19.1
2018-04-16T12:17:55.187Z,18.87
2018-04-16T12:18:55.539Z,18.93
2018-04-16T12:19:55.694Z,18.87
2018-04-16T12:20:54.900Z,18.86
2018-04-16T12:21:55.407Z,18.86
2018-04-16T12:22:55.687Z,18.71
2018-04-16T12:23:55.605Z,18.66
2018-04-16T12:24:55.862Z,18.61
2018-04-16T12:25:55.697Z,18.51
2018-04-16T12:26:56.133Z,18.59
2018-04-16T12:27:55.160Z,18.5
2018-04-16T12:28:54.875Z,18.53
2018-04-16T12:29:56.143Z,18.42
2018-04-16T12:30:56.288Z,18.49
2018-04-16T12:31:55.695Z,18.42
2018-04-16T12:32:56.415Z,18.32
2018-04-16T12:33:56.261Z,18.38
2018-04-16T12:34:56.190Z,18.41
2018-04-16T12:35:56.355Z,18.41
2018-04-16T12:36:56.577Z,18.45
2018-04-16T12:37:55.970Z,18.39
2018-04-16T12:38:56.259Z,18.36
2018-04-16T12:39:56.229Z,18.36
2018-04-16T12:40:56.268Z,18.38
2018-04-16T12:41:56.559Z,18.32
2018-04-16T12:42:56.398Z,18.38
2018-04-16T12:43:56.701Z,18.19
2018-04-16T12:44:56.402Z,18.14
2018-04-16T12:45:56.706Z,18.13
2018-04-16T12:46:57.139Z,17.96
2018-04-16T12:47:56.548Z,18.05
2018-04-16T12:48:56.697Z,18.05
2018-04-16T12:49:56.451Z,18.16
2018-04-16T12:50:56.870Z,18.21
2018-04-16T12:51:56.961Z,18.24
2018-04-16T12:52:56.976Z,18.26
2018-04-16T12:53:57.080Z,18.24
2018-04-16T12:54:57.222Z,18.2
2018-04-16T12:55:56.542Z,18.05
2018-04-16T12:56:56.733Z,18.05